createdAt,value
2023-02-05T00:01:11.723Z,5.97
2023-02-05T00:03:45.290Z,7.83
2023-02-05T00:06:18.660Z,7.03
2023-02-05T00:08:52.148Z,6.95
2023-02-05T00:11:26.240Z,6.28
2023-02-05T00:13:59.657Z,6.15
2023-02-05T00:16:34.753Z,6.40
2023-02-05T00:19:08.271Z,7.37
2023-02-05T00:21:41.784Z,7.08
2023-02-05T00:24:15.547Z,7.25
2023-02-05T00:26:48.945Z,7.55
2023-02-05T00:29:22.321Z,6.58
2023-02-05T00:31:55.541Z,7.22
2023-02-05T00:34:30.030Z,7.92
2023-02-05T00:37:03.321Z,7.62
2023-02-05T00:39:36.820Z,7.65
2023-02-05T00:42:10.442Z,7.67
2023-02-05T00:44:43.761Z,6.92
2023-02-05T00:47:17.317Z,6.97
2023-02-05T00:49:50.816Z,7.58
2023-02-05T00:52:24.338Z,7.55
2023-02-05T00:54:58.495Z,7.53
2023-02-05T00:57:31.890Z,6.97
2023-02-05T01:00:07.144Z,6.10
2023-02-05T01:02:40.688Z,7.10
2023-02-05T01:05:14.019Z,6.47
2023-02-05T01:07:47.650Z,6.60
2023-02-05T01:10:21.229Z,5.90
2023-02-05T01:12:54.708Z,7.37
2023-02-05T01:15:28.554Z,6.50
2023-02-05T01:18:02.262Z,6.60
2023-02-05T01:20:37.457Z,6.92
2023-02-05T01:23:11.133Z,7.03
2023-02-05T01:25:44.900Z,6.30
2023-02-05T01:28:18.515Z,8.05
2023-02-05T01:30:53.193Z,7.05
2023-02-05T01:33:26.624Z,7.10
2023-02-05T01:36:01.351Z,7.47
2023-02-05T01:38:34.540Z,6.20
2023-02-05T01:41:09.411Z,7.40
2023-02-05T01:43:42.940Z,7.53
2023-02-05T01:46:26.466Z,7.65
2023-02-05T01:49:01.884Z,7.83
2023-02-05T01:51:38.087Z,7.35
2023-02-05T01:54:11.819Z,7.00
2023-02-05T01:56:47.770Z,7.87
2023-02-05T01:59:25.307Z,7.03
2023-02-05T02:02:00.910Z,7.62
2023-02-05T02:04:38.251Z,7.22
2023-02-05T02:07:14.300Z,7.25
2023-02-05T02:09:49.355Z,6.08
2023-02-05T02:12:25.482Z,6.45
2023-02-05T02:15:03.797Z,7.40
2023-02-05T02:17:40.203Z,6.87
2023-02-05T02:20:15.928Z,6.72
2023-02-05T02:23:00.729Z,7.72
2023-02-05T02:25:52.631Z,7.72
2023-02-05T02:28:29.645Z,7.22
2023-02-05T02:31:06.069Z,7.47
2023-02-05T02:33:43.015Z,8.00
2023-02-05T02:36:19.650Z,8.23
2023-02-05T02:38:57.262Z,7.03
2023-02-05T02:41:33.659Z,8.63
2023-02-05T02:44:09.817Z,8.85
2023-02-05T02:46:46.050Z,7.55
2023-02-05T02:49:22.288Z,7.40
2023-02-05T02:51:57.256Z,7.78
2023-02-05T02:54:32.671Z,7.72
2023-02-05T02:57:09.276Z,7.85
2023-02-05T02:59:44.846Z,8.05
2023-02-05T03:02:19.781Z,7.12
2023-02-05T03:04:56.060Z,7.78
2023-02-05T03:07:32.941Z,6.78
2023-02-05T03:10:10.921Z,6.60
2023-02-05T03:12:44.731Z,7.35
2023-02-05T03:15:18.917Z,6.95
2023-02-05T03:17:54.819Z,8.10
2023-02-05T03:20:31.699Z,9.30
2023-02-05T03:23:05.295Z,8.10
2023-02-05T03:25:40.333Z,8.55
2023-02-05T03:28:16.154Z,7.80
2023-02-05T03:30:58.143Z,7.15
2023-02-05T03:33:40.291Z,8.45
2023-02-05T03:36:18.458Z,8.48
2023-02-05T03:39:07.995Z,7.92
2023-02-05T03:41:57.634Z,8.10
2023-02-05T03:44:41.492Z,8.08
2023-02-05T03:47:18.403Z,7.85
2023-02-05T03:49:54.942Z,8.10
2023-02-05T03:52:32.818Z,7.35
2023-02-05T03:55:10.048Z,8.18
2023-02-05T03:57:48.687Z,6.92
2023-02-05T04:00:23.481Z,7.55
2023-02-05T04:02:58.065Z,8.55
2023-02-05T04:05:33.856Z,6.90
2023-02-05T04:08:08.757Z,8.75
2023-02-05T04:10:43.750Z,8.18
2023-02-05T04:13:19.123Z,9.15
2023-02-05T04:15:53.341Z,8.23
2023-02-05T04:18:27.710Z,8.95
2023-02-05T04:21:01.957Z,9.20
2023-02-05T04:23:36.281Z,8.58
2023-02-05T04:26:12.625Z,7.83
2023-02-05T04:28:47.791Z,8.30
2023-02-05T04:31:21.507Z,9.58
2023-02-05T04:33:55.465Z,9.65
2023-02-05T04:36:29.291Z,8.80
2023-02-05T04:39:03.197Z,9.58
2023-02-05T04:41:36.795Z,8.58
2023-02-05T04:44:10.427Z,9.25
2023-02-05T04:46:44.123Z,9.00
2023-02-05T04:49:17.558Z,9.50
2023-02-05T04:51:50.960Z,8.73
2023-02-05T04:54:24.374Z,8.38
2023-02-05T04:56:58.063Z,9.05
2023-02-05T04:59:31.827Z,8.60
2023-02-05T05:02:05.535Z,10.20
2023-02-05T05:04:43.219Z,8.95
2023-02-05T05:09:51.021Z,10.15
2023-02-05T05:12:24.224Z,10.08
2023-02-05T05:14:57.666Z,9.63
2023-02-05T05:17:31.050Z,10.10
2023-02-05T05:20:05.191Z,9.25
2023-02-05T05:22:38.641Z,9.25
2023-02-05T05:25:12.484Z,9.60
2023-02-05T05:27:45.919Z,9.60
2023-02-05T05:30:19.674Z,10.95
2023-02-05T05:32:53.149Z,10.35
2023-02-05T05:35:26.553Z,10.72
2023-02-05T05:38:00.337Z,10.90
2023-02-05T05:40:51.543Z,11.15
2023-02-05T05:43:52.676Z,10.78
2023-02-05T05:46:27.559Z,10.82
2023-02-05T05:49:02.600Z,9.98
2023-02-05T05:51:36.119Z,9.95
2023-02-05T05:54:09.853Z,10.28
2023-02-05T05:56:45.214Z,9.55
2023-02-05T05:59:19.453Z,10.20
2023-02-05T06:01:53.141Z,10.70
2023-02-05T06:04:26.645Z,9.45
2023-02-05T06:07:00.309Z,9.20
2023-02-05T06:09:34.124Z,10.72
2023-02-05T06:12:10.070Z,13.65
2023-02-05T06:14:43.614Z,10.88
2023-02-05T06:17:17.265Z,10.68
2023-02-05T06:19:50.465Z,9.75
2023-02-05T06:22:23.931Z,9.33
2023-02-05T06:24:57.421Z,9.28
2023-02-05T06:27:30.677Z,9.68
2023-02-05T06:30:04.384Z,10.15
2023-02-05T06:32:37.854Z,10.18
2023-02-05T06:35:11.793Z,10.20
2023-02-05T06:37:47.544Z,10.88
2023-02-05T06:40:22.595Z,9.03
2023-02-05T06:42:56.116Z,8.80
2023-02-05T06:45:29.637Z,9.45
2023-02-05T06:48:03.358Z,10.20
2023-02-05T06:50:36.778Z,10.43
2023-02-05T06:53:11.789Z,9.68
2023-02-05T06:55:45.098Z,9.20
2023-02-05T06:58:18.540Z,9.58
2023-02-05T07:00:52.364Z,9.38
2023-02-05T07:03:25.965Z,9.40
2023-02-05T07:06:04.814Z,9.68
2023-02-05T07:08:38.508Z,9.23
2023-02-05T07:11:12.193Z,8.93
2023-02-05T07:13:45.673Z,8.83
2023-02-05T07:16:19.704Z,9.63
2023-02-05T07:18:53.505Z,9.03
2023-02-05T07:21:26.924Z,8.35
2023-02-05T07:24:00.276Z,8.83
2023-02-05T07:26:33.787Z,8.88
2023-02-05T07:29:07.295Z,8.08
2023-02-05T07:31:40.844Z,8.75
2023-02-05T07:34:14.321Z,8.95
2023-02-05T07:36:49.375Z,8.40
2023-02-05T07:39:22.913Z,9.70
2023-02-05T07:41:56.705Z,9.38
2023-02-05T07:44:34.631Z,8.98
2023-02-05T07:47:08.132Z,10.03
2023-02-05T07:49:41.606Z,8.65
2023-02-05T07:52:15.149Z,8.55
2023-02-05T07:54:49.210Z,7.25
2023-02-05T07:57:22.601Z,9.20
2023-02-05T07:59:56.029Z,7.95
2023-02-05T08:02:29.578Z,7.67
2023-02-05T08:05:03.107Z,8.43
2023-02-05T08:07:37.685Z,7.33
2023-02-05T08:10:14.774Z,8.60
2023-02-05T08:12:48.366Z,9.75
2023-02-05T08:15:22.231Z,8.65
2023-02-05T08:17:55.772Z,9.35
2023-02-05T08:20:29.453Z,9.35
2023-02-05T08:23:05.264Z,8.50
2023-02-05T08:25:39.435Z,8.55
2023-02-05T08:28:12.840Z,9.75
2023-02-05T08:30:46.167Z,9.40
2023-02-05T08:33:20.213Z,8.20
2023-02-05T08:35:53.908Z,8.40
2023-02-05T08:38:28.302Z,8.85
2023-02-05T08:41:03.441Z,5.47
2023-02-05T08:43:36.770Z,6.75
2023-02-05T08:46:10.757Z,5.80
2023-02-05T08:48:44.442Z,5.28
2023-02-05T08:51:19.508Z,6.15
2023-02-05T08:53:53.609Z,5.95
2023-02-05T08:56:27.234Z,6.00
2023-02-05T08:59:00.812Z,6.42
2023-02-05T09:01:34.313Z,6.17
2023-02-05T09:04:08.515Z,6.72
2023-02-05T09:06:42.321Z,6.47
2023-02-05T09:09:16.261Z,6.47
2023-02-05T09:11:50.609Z,6.70
2023-02-05T09:14:24.230Z,7.65
2023-02-05T09:16:57.910Z,7.08
2023-02-05T09:19:32.621Z,6.67
2023-02-05T09:22:07.002Z,8.25
2023-02-05T09:24:40.766Z,8.03
2023-02-05T09:27:15.111Z,7.90
2023-02-05T09:29:48.497Z,6.47
2023-02-05T09:32:22.264Z,7.42
2023-02-05T09:34:55.810Z,8.33
2023-02-05T09:37:29.328Z,7.83
2023-02-05T09:40:20.850Z,7.35
2023-02-05T09:42:40.944Z,6.97
2023-02-05T09:45:20.603Z,8.68
2023-02-05T09:47:56.833Z,7.67
2023-02-05T09:50:31.812Z,8.53
2023-02-05T09:53:07.945Z,8.35
2023-02-05T09:55:45.080Z,8.58
2023-02-05T09:58:22.025Z,9.18
2023-02-05T10:00:59.607Z,8.60
2023-02-05T10:06:16.340Z,7.67
2023-02-05T10:08:52.857Z,7.00
2023-02-05T10:11:29.526Z,8.28
2023-02-05T10:14:07.330Z,8.23
2023-02-05T10:22:30.089Z,5.95
2023-02-05T10:27:57.052Z,7.00
2023-02-05T10:30:34.151Z,5.70
2023-02-05T10:33:11.214Z,5.25
2023-02-05T10:35:47.422Z,6.42
2023-02-05T10:38:24.423Z,6.33
2023-02-05T10:41:00.929Z,6.53
2023-02-05T10:43:37.436Z,6.50
2023-02-05T10:46:14.211Z,8.03
2023-02-05T10:48:49.836Z,6.53
2023-02-05T10:51:26.576Z,6.65
2023-02-05T10:54:01.870Z,5.75
2023-02-05T10:56:35.353Z,5.90
2023-02-05T10:59:08.645Z,5.10
2023-02-05T11:01:42.465Z,5.05
2023-02-05T11:04:18.700Z,5.45
2023-02-05T11:06:53.812Z,6.17
2023-02-05T11:09:36.017Z,5.78
2023-02-05T11:12:18.521Z,6.42
2023-02-05T11:14:59.457Z,6.03
2023-02-05T11:17:36.814Z,6.28
2023-02-05T11:20:15.055Z,5.90
2023-02-05T11:22:49.906Z,6.78
2023-02-05T11:25:26.585Z,6.78
2023-02-05T11:28:01.316Z,5.65
2023-02-05T11:30:52.672Z,5.58
2023-02-05T11:33:27.845Z,5.40
2023-02-05T11:36:04.006Z,3.30
2023-02-05T11:38:45.913Z,7.00
2023-02-05T11:41:29.307Z,7.45
2023-02-05T11:44:04.467Z,6.97
2023-02-05T11:46:41.245Z,7.12
2023-02-05T11:49:21.595Z,7.95
2023-02-05T11:51:57.577Z,8.50
2023-02-05T11:54:33.029Z,8.75
2023-02-05T11:57:10.525Z,8.68
2023-02-05T11:59:44.756Z,8.23
2023-02-05T12:05:24.036Z,8.48
2023-02-05T12:08:00.685Z,9.30
2023-02-05T12:10:38.518Z,8.80
2023-02-05T12:13:18.634Z,9.85
2023-02-05T12:15:56.821Z,9.43
2023-02-05T12:18:35.157Z,11.28
2023-02-05T12:21:17.257Z,9.43
2023-02-05T12:24:28.789Z,10.93
2023-02-05T12:27:05.542Z,10.00
2023-02-05T12:29:48.456Z,9.00
2023-02-05T12:32:25.954Z,9.25
2023-02-05T12:35:07.434Z,9.45
2023-02-05T12:37:44.198Z,8.53
2023-02-05T12:40:25.059Z,9.45
2023-02-05T12:43:01.370Z,9.15
2023-02-05T12:45:48.207Z,8.98
2023-02-05T12:48:34.419Z,10.13
2023-02-05T12:51:15.289Z,9.13
2023-02-05T12:53:57.975Z,9.43
2023-02-05T12:56:42.724Z,9.15
2023-02-05T12:59:19.181Z,9.65
2023-02-05T13:01:55.364Z,9.15
2023-02-05T13:04:31.831Z,8.33
2023-02-05T13:07:12.126Z,10.90
2023-02-05T13:09:49.875Z,10.13
2023-02-05T13:15:04.532Z,10.40
2023-02-05T13:17:41.280Z,10.60
2023-02-05T13:20:21.507Z,10.20
2023-02-05T13:23:16.623Z,10.53
2023-02-05T13:26:09.292Z,10.53
2023-02-05T13:28:46.168Z,10.43
2023-02-05T13:31:24.676Z,10.83
2023-02-05T13:34:00.622Z,10.32
2023-02-05T13:37:10.931Z,10.50
2023-02-05T13:39:56.298Z,10.90
2023-02-05T13:43:15.618Z,10.35
2023-02-05T13:46:15.965Z,9.70
2023-02-05T13:49:41.874Z,10.65
2023-02-05T13:52:37.534Z,11.33
2023-02-05T13:55:30.005Z,10.28
2023-02-05T13:58:13.341Z,10.18
2023-02-05T14:00:48.954Z,9.30
2023-02-05T14:03:36.609Z,10.60
2023-02-05T14:06:23.268Z,9.45
2023-02-05T14:09:06.574Z,10.90
2023-02-05T14:11:58.737Z,9.50
2023-02-05T14:14:35.894Z,9.73
2023-02-05T14:17:52.386Z,11.73
2023-02-05T14:20:41.037Z,10.60
2023-02-05T14:23:20.212Z,8.98
2023-02-05T14:26:12.286Z,9.55
2023-02-05T14:28:53.738Z,10.08
2023-02-05T14:32:03.567Z,10.13
2023-02-05T14:35:03.113Z,9.85
2023-02-05T14:37:39.249Z,8.85
2023-02-05T14:40:25.023Z,9.38
2023-02-05T14:43:09.833Z,8.83
2023-02-05T14:45:39.605Z,9.85
2023-02-05T14:48:23.917Z,8.70
2023-02-05T14:51:10.206Z,8.63
2023-02-05T14:53:45.991Z,8.85
2023-02-05T14:56:30.753Z,9.10
2023-02-05T14:59:07.582Z,9.05
2023-02-05T15:01:50.616Z,9.03
2023-02-05T15:04:49.134Z,8.68
2023-02-05T15:07:25.826Z,9.10
2023-02-05T15:10:02.805Z,7.62
2023-02-05T15:16:21.853Z,9.43
2023-02-05T15:18:57.023Z,8.75
2023-02-05T15:21:33.240Z,7.80
2023-02-05T15:24:09.349Z,8.85
2023-02-05T15:26:46.664Z,7.67
2023-02-05T15:29:24.023Z,7.97
2023-02-05T15:32:00.586Z,7.37
2023-02-05T15:34:38.239Z,7.65
2023-02-05T15:37:18.909Z,7.35
2023-02-05T15:39:55.204Z,8.40
2023-02-05T15:42:33.095Z,8.85
2023-02-05T15:48:02.367Z,10.10
2023-02-05T15:50:37.396Z,10.15
2023-02-05T15:53:13.651Z,9.55
2023-02-05T15:55:50.246Z,10.85
2023-02-05T15:58:26.575Z,9.23
2023-02-05T16:01:00.138Z,8.30
2023-02-05T16:03:36.601Z,10.63
2023-02-05T16:06:18.645Z,9.60
2023-02-05T16:08:53.720Z,8.80
2023-02-05T16:11:32.287Z,9.75
2023-02-05T16:14:15.675Z,10.25
2023-02-05T16:17:03.306Z,9.38
2023-02-05T16:22:14.453Z,9.40
2023-02-05T16:24:50.969Z,9.28
2023-02-05T16:27:27.795Z,9.90
2023-02-05T16:30:05.123Z,10.80
2023-02-05T16:32:42.555Z,10.48
2023-02-05T16:35:21.452Z,10.55
2023-02-05T16:37:55.199Z,11.50
2023-02-05T16:40:36.508Z,9.93
2023-02-05T16:43:23.994Z,10.43
2023-02-05T16:46:25.529Z,10.60
2023-02-05T16:49:01.042Z,10.25
2023-02-05T16:52:07.101Z,11.28
2023-02-05T16:54:42.380Z,10.55
2023-02-05T16:57:18.982Z,10.93
2023-02-05T16:59:54.487Z,11.73
2023-02-05T17:02:32.196Z,9.98
2023-02-05T17:05:08.915Z,10.70
2023-02-05T17:07:42.820Z,10.32
2023-02-05T17:10:20.638Z,12.05
2023-02-05T17:18:38.186Z,10.90
2023-02-05T17:21:26.962Z,11.45
2023-02-05T17:24:03.088Z,11.18
2023-02-05T17:26:39.491Z,11.60
2023-02-05T17:29:17.321Z,11.78
2023-02-05T17:34:22.767Z,11.03
2023-02-05T17:36:56.572Z,11.57
2023-02-05T17:39:30.666Z,12.65
2023-02-05T17:42:04.394Z,12.35
2023-02-05T17:44:38.214Z,13.62
2023-02-05T17:47:13.100Z,11.57
2023-02-05T17:49:46.536Z,11.63
2023-02-05T17:52:20.103Z,12.53
2023-02-05T17:54:54.158Z,12.47
2023-02-05T17:57:27.853Z,10.88
2023-02-05T18:00:02.331Z,11.12
2023-02-05T18:02:37.161Z,11.00
2023-02-05T18:05:12.885Z,10.88
2023-02-05T18:07:49.171Z,11.22
2023-02-05T18:10:25.192Z,11.35
2023-02-05T18:13:03.323Z,12.70
2023-02-05T18:15:39.016Z,12.70
2023-02-05T18:18:14.024Z,12.65
2023-02-05T18:20:48.070Z,13.15
2023-02-05T18:23:28.733Z,11.78
2023-02-05T18:25:59.096Z,11.30
2023-02-05T18:28:34.341Z,11.35
2023-02-05T18:31:09.631Z,11.38
2023-02-05T18:33:43.245Z,11.53
2023-02-05T18:36:21.481Z,13.72
2023-02-05T18:38:56.684Z,12.25
2023-02-05T18:41:31.788Z,11.05
2023-02-05T18:44:05.354Z,11.80
2023-02-05T18:46:39.294Z,10.88
2023-02-05T18:49:12.996Z,10.48
2023-02-05T18:51:48.626Z,10.80
2023-02-05T18:54:22.216Z,10.28
2023-02-05T18:56:57.113Z,9.73
2023-02-05T18:59:30.626Z,9.43
2023-02-05T19:02:05.659Z,11.38
2023-02-05T19:04:38.837Z,8.60
2023-02-05T19:07:14.245Z,8.50
2023-02-05T19:09:47.775Z,9.73
2023-02-05T19:12:21.373Z,9.80
2023-02-05T19:14:56.596Z,8.15
2023-02-05T19:17:30.486Z,8.85
2023-02-05T19:20:05.619Z,9.28
2023-02-05T19:22:42.494Z,10.80
2023-02-05T19:25:15.999Z,8.20
2023-02-05T19:27:49.616Z,8.38
2023-02-05T19:30:23.529Z,9.05
2023-02-05T19:32:58.494Z,8.85
2023-02-05T19:35:32.220Z,8.63
2023-02-05T19:38:08.872Z,8.80
2023-02-05T19:40:42.596Z,8.48
2023-02-05T19:43:17.666Z,8.10
2023-02-05T19:45:51.284Z,8.75
2023-02-05T19:48:24.428Z,9.00
2023-02-05T19:50:58.400Z,8.58
2023-02-05T19:53:31.915Z,8.20
2023-02-05T19:56:07.291Z,8.15
2023-02-05T19:58:42.267Z,8.30
2023-02-05T20:01:18.673Z,8.58
2023-02-05T20:03:53.624Z,6.97
2023-02-05T20:06:28.568Z,6.70
2023-02-05T20:09:03.399Z,7.37
2023-02-05T20:11:36.924Z,8.40
2023-02-05T20:14:10.970Z,6.80
2023-02-05T20:16:45.968Z,6.45
2023-02-05T20:19:20.378Z,7.33
2023-02-05T20:21:53.834Z,7.42
2023-02-05T20:24:29.799Z,6.55
2023-02-05T20:27:03.339Z,7.55
2023-02-05T20:29:54.296Z,7.83
2023-02-05T20:32:29.181Z,6.90
2023-02-05T20:35:02.691Z,6.75
2023-02-05T20:37:37.059Z,7.42
2023-02-05T20:40:12.791Z,6.97
2023-02-05T20:42:47.366Z,7.05
2023-02-05T20:45:23.682Z,7.15
2023-02-05T20:47:57.241Z,7.05
2023-02-05T20:50:30.896Z,7.80
2023-02-05T20:53:04.172Z,7.30
2023-02-05T20:55:37.451Z,8.03
2023-02-05T20:58:10.870Z,7.08
2023-02-05T21:00:44.842Z,8.05
2023-02-05T21:03:20.033Z,8.63
2023-02-05T21:05:54.805Z,9.13
2023-02-05T21:08:28.453Z,7.78
2023-02-05T21:11:02.335Z,8.43
2023-02-05T21:13:36.237Z,8.15
2023-02-05T21:16:10.552Z,10.00
2023-02-05T21:18:44.548Z,7.78
2023-02-05T21:21:19.408Z,7.00
2023-02-05T21:23:57.344Z,8.10
2023-02-05T21:26:32.778Z,9.08
2023-02-05T21:29:10.127Z,8.60
2023-02-05T21:31:46.628Z,7.55
2023-02-05T21:34:25.056Z,8.08
2023-02-05T21:36:58.718Z,8.28
2023-02-05T21:39:32.557Z,7.87
2023-02-05T21:42:06.189Z,7.00
2023-02-05T21:44:39.552Z,7.92
2023-02-05T21:47:12.851Z,6.75
2023-02-05T21:49:46.918Z,7.20
2023-02-05T21:52:20.618Z,6.72
2023-02-05T21:54:54.154Z,6.80
2023-02-05T21:57:27.554Z,7.10
2023-02-05T22:00:02.728Z,7.35
2023-02-05T22:02:38.107Z,7.67
2023-02-05T22:05:12.158Z,8.43
2023-02-05T22:07:45.641Z,8.00
2023-02-05T22:10:19.901Z,7.78
2023-02-05T22:12:53.604Z,7.80
2023-02-05T22:15:28.051Z,8.28
2023-02-05T22:18:01.625Z,8.23
2023-02-05T22:20:34.750Z,8.33
2023-02-05T22:23:08.225Z,7.58
2023-02-05T22:25:48.136Z,7.97
2023-02-05T22:28:21.910Z,8.10
2023-02-05T22:31:00.912Z,7.37
2023-02-05T22:33:35.026Z,7.53
2023-02-05T22:36:11.621Z,7.25
2023-02-05T22:38:45.778Z,6.97
2023-02-05T22:41:20.991Z,7.80
2023-02-05T22:43:56.128Z,7.53
2023-02-05T22:46:31.174Z,6.90
2023-02-05T22:49:05.480Z,7.67
2023-02-05T22:51:41.442Z,8.20
2023-02-05T22:54:16.262Z,7.15
2023-02-05T22:56:49.698Z,6.95
2023-02-05T22:59:23.551Z,6.95
2023-02-05T23:01:57.120Z,6.87
2023-02-05T23:04:30.778Z,6.97
2023-02-05T23:07:04.251Z,6.20
2023-02-05T23:09:37.854Z,7.65
2023-02-05T23:12:11.613Z,6.80
2023-02-05T23:14:44.908Z,7.42
2023-02-05T23:17:18.453Z,7.00
2023-02-05T23:19:55.156Z,7.20
2023-02-05T23:22:28.956Z,6.95
2023-02-05T23:25:02.599Z,8.05
2023-02-05T23:27:37.476Z,6.87
2023-02-05T23:30:13.751Z,7.15
2023-02-05T23:32:47.399Z,6.05
2023-02-05T23:35:21.142Z,7.42
2023-02-05T23:37:54.902Z,6.87
2023-02-05T23:40:28.717Z,7.28
2023-02-05T23:43:02.200Z,7.50
2023-02-05T23:45:36.042Z,7.85
2023-02-05T23:48:09.911Z,7.17
2023-02-05T23:50:43.921Z,7.28
2023-02-05T23:53:17.722Z,6.60
2023-02-05T23:55:52.511Z,6.17
2023-02-05T23:58:27.608Z,6.62
